Time;durP1;ratioP1;P1;durP2;ratioP2;P2;SDS_P1;SDS_P2;PMS_P1;PMS_P2;Temp;Humidity;BMP_temperature;BMP_pressure;BME280_temperature;BME280_humidity;BME280_pressure;Samples;Min_cycle;Max_cycle;Signal;HPM_P1;HPM_P2
2023/09/10 04:22:32;;;;;;;15.00;11.18;;;;;;;15.58;100.00;100355.16;5105388;28;20380;-67
2023/09/10 04:24:57;;;;;;;16.30;11.45;;;;;;;15.65;100.00;100356.88;5107447;28;20040;-67
2023/09/10 04:27:23;;;;;;;16.35;11.88;;;;;;;15.61;100.00;100362.81;5089276;28;20107;-68
2023/09/10 04:29:48;;;;;;;16.08;11.57;;;;;;;15.54;100.00;100365.50;5089324;28;20055;-67
2023/09/10 04:32:13;;;;;;;22.50;11.60;;;;;;;15.54;100.00;100370.88;5089032;28;20036;-67
2023/09/10 04:34:39;;;;;;;16.60;11.25;;;;;;;15.49;100.00;100373.31;5087923;28;20037;-68
2023/09/10 04:37:04;;;;;;;15.45;10.52;;;;;;;15.51;100.00;100382.00;5089280;28;20040;-69
2023/09/10 04:39:30;;;;;;;16.45;11.18;;;;;;;15.55;100.00;100377.06;5087956;28;20502;-68
2023/09/10 04:41:56;;;;;;;14.85;10.43;;;;;;;15.49;100.00;100373.31;5087531;28;20036;-67
2023/09/10 04:44:22;;;;;;;13.40;10.32;;;;;;;15.48;100.00;100379.72;5087599;28;20038;-68
2023/09/10 04:46:47;;;;;;;14.68;10.27;;;;;;;15.47;100.00;100373.53;5087794;28;20440;-67
2023/09/10 04:49:13;;;;;;;11.27;9.63;;;;;;;15.45;100.00;100375.59;5087642;28;20040;-68
2023/09/10 04:51:38;;;;;;;14.73;10.48;;;;;;;15.56;100.00;100386.75;5087664;28;20031;-68
2023/09/10 04:54:04;;;;;;;12.38;9.93;;;;;;;15.53;100.00;100387.19;5087293;28;20040;-68
2023/09/10 04:56:29;;;;;;;12.43;9.38;;;;;;;15.49;100.00;100389.44;5087491;28;20410;-68
2023/09/10 04:58:55;;;;;;;13.07;9.25;;;;;;;15.37;100.00;100375.75;5087524;28;20032;-69
2023/09/10 05:01:20;;;;;;;12.95;9.95;;;;;;;15.40;100.00;100391.47;5087332;28;20403;-68
2023/09/10 05:03:46;;;;;;;11.77;9.40;;;;;;;15.37;100.00;100378.44;5088468;28;20046;-67
2023/09/10 05:06:12;;;;;;;12.68;9.68;;;;;;;15.39;100.00;100387.13;5088663;28;20116;-69
2023/09/10 05:08:38;;;;;;;15.03;11.50;;;;;;;15.40;100.00;100386.09;5087501;28;20406;-68
2023/09/10 05:11:04;;;;;;;13.75;10.63;;;;;;;15.38;100.00;100387.31;5088611;28;20039;-68
2023/09/10 05:13:29;;;;;;;14.48;11.20;;;;;;;15.36;100.00;100389.38;5086996;28;20036;-68
2023/09/10 05:15:55;;;;;;;14.50;10.88;;;;;;;15.35;100.00;100388.56;5087058;28;20037;-68
2023/09/10 05:18:21;;;;;;;18.33;12.02;;;;;;;15.38;100.00;100390.00;5087027;28;20494;-68
2023/09/10 05:20:48;;;;;;;17.63;13.25;;;;;;;15.41;100.00;100395.81;5086944;28;20036;-68
2023/09/10 05:23:13;;;;;;;16.83;11.63;;;;;;;15.34;100.00;100402.19;5086779;28;20109;-68
2023/09/10 05:25:39;;;;;;;16.05;11.65;;;;;;;15.33;100.00;100396.00;5088231;28;20470;-68
2023/09/10 05:28:04;;;;;;;12.25;9.77;;;;;;;15.30;100.00;100392.88;5086830;28;20036;-67
2023/09/10 05:30:31;;;;;;;19.58;13.70;;;;;;;15.42;100.00;100396.63;5086809;28;20505;-68
2023/09/10 05:32:57;;;;;;;20.48;14.48;;;;;;;15.43;100.00;100396.41;5078289;28;20055;-68
2023/09/10 05:35:23;;;;;;;18.25;14.18;;;;;;;15.51;100.00;100392.72;5073249;28;20150;-68
2023/09/10 05:37:49;;;;;;;15.27;11.68;;;;;;;15.52;100.00;100401.59;5073282;28;20459;-69
2023/09/10 05:40:14;;;;;;;17.90;13.07;;;;;;;15.57;100.00;100393.78;5074424;28;20036;-67
2023/09/10 05:42:40;;;;;;;16.45;12.75;;;;;;;15.56;100.00;100405.56;5072903;28;20171;-68
2023/09/10 05:45:06;;;;;;;15.23;12.10;;;;;;;15.54;100.00;100394.19;5073137;28;20086;-67
2023/09/10 05:47:32;;;;;;;18.00;12.45;;;;;;;15.62;100.00;100407.47;5072959;28;20040;-68
2023/09/10 05:49:59;;;;;;;13.60;11.23;;;;;;;15.55;100.00;100404.72;5071138;28;20032;-68
2023/09/10 05:52:25;;;;;;;15.57;9.48;;;;;;;15.57;100.00;100402.66;5067685;28;20025;-67
2023/09/10 05:54:50;;;;;;;15.18;12.13;;;;;;;15.65;100.00;100404.38;5072935;28;20562;-67
2023/09/10 05:57:16;;;;;;;15.70;11.40;;;;;;;15.70;100.00;100409.97;5072800;28;20033;-69
2023/09/10 05:59:41;;;;;;;19.33;12.48;;;;;;;15.78;100.00;100406.25;5074177;28;20525;-67
2023/09/10 06:02:07;;;;;;;17.70;11.25;;;;;;;15.86;100.00;100416.84;5072351;28;20071;-65
2023/09/10 06:04:33;;;;;;;17.02;12.77;;;;;;;15.94;100.00;100413.94;5074043;28;20036;-67
2023/09/10 06:07:03;;;;;;;15.25;10.95;;;;;;;15.96;100.00;100418.06;5072652;28;20131;-67
2023/09/10 06:09:33;;;;;;;21.77;16.38;;;;;;;16.07;100.00;100416.66;5072734;28;20410;-67
2023/09/10 06:12:00;;;;;;;18.17;13.25;;;;;;;16.14;100.00;100412.09;5072462;28;20043;-67
2023/09/10 06:14:26;;;;;;;24.93;16.73;;;;;;;16.23;100.00;100421.59;5072740;28;20036;-67
2023/09/10 06:16:51;;;;;;;25.15;17.83;;;;;;;16.33;100.00;100423.09;5072392;28;20279;-67
2023/09/10 06:19:16;;;;;;;24.35;15.82;;;;;;;16.39;100.00;100425.78;5073823;28;20534;-67
2023/09/10 06:21:42;;;;;;;24.48;18.98;;;;;;;16.47;100.00;100425.56;5072259;28;20399;-67
2023/09/10 06:24:07;;;;;;;14.85;11.50;;;;;;;16.51;100.00;100429.50;5073498;28;20064;-67
2023/09/10 06:26:34;;;;;;;17.40;12.98;;;;;;;16.63;100.00;100428.88;5055603;28;20071;-67
2023/09/10 06:29:00;;;;;;;16.05;13.40;;;;;;;16.71;100.00;100436.75;5072283;28;20058;-66
2023/09/10 06:31:26;;;;;;;13.87;10.83;;;;;;;16.79;100.00;100439.22;5073544;28;20040;-67
2023/09/10 06:33:54;;;;;;;13.70;11.23;;;;;;;16.88;100.00;100443.34;5071978;28;20047;-67
2023/09/10 06:36:20;;;;;;;14.02;10.20;;;;;;;17.01;100.00;100434.41;5072081;28;20459;-68
2023/09/10 06:38:47;;;;;;;13.40;9.95;;;;;;;17.11;100.00;100434.81;5072268;28;20036;-67
2023/09/10 06:41:15;;;;;;;11.57;10.02;;;;;;;17.16;100.00;100443.09;5072040;28;20086;-67
2023/09/10 06:43:40;;;;;;;13.20;9.85;;;;;;;17.26;100.00;100446.13;5072579;28;20036;-65
2023/09/10 06:46:12;;;;;;;12.95;10.32;;;;;;;17.33;100.00;100441.56;5074245;28;20056;-66
2023/09/10 06:48:38;;;;;;;13.85;10.32;;;;;;;17.42;100.00;100439.47;5065525;28;20466;-67
2023/09/10 06:51:03;;;;;;;12.23;9.88;;;;;;;17.49;100.00;100445.66;5073343;28;20032;-69
2023/09/10 06:53:29;;;;;;;11.18;8.73;;;;;;;17.53;100.00;100446.88;5067859;28;20500;-66
2023/09/10 06:55:56;;;;;;;13.30;9.20;;;;;;;17.60;100.00;100445.00;5072866;28;20092;-67
2023/09/10 06:58:22;;;;;;;13.07;9.20;;;;;;;17.69;100.00;100452.81;5093255;28;20140;-55
2023/09/10 07:00:47;;;;;;;15.63;10.15;;;;;;;17.80;100.00;100455.69;5083695;28;20132;-53
2023/09/10 07:03:13;;;;;;;12.02;9.07;;;;;;;17.88;100.00;100460.00;5055971;28;20067;-56
2023/09/10 07:05:40;;;;;;;10.50;8.43;;;;;;;18.04;100.00;100466.75;5073948;28;20062;-56
2023/09/10 07:08:07;;;;;;;10.77;8.68;;;;;;;18.13;100.00;100460.91;5087986;28;20501;-58
2023/09/10 07:10:33;;;;;;;10.85;9.18;;;;;;;18.21;100.00;100469.75;5081235;28;20039;-55
2023/09/10 07:12:59;;;;;;;15.27;9.60;;;;;;;18.32;100.00;100469.03;5079693;28;20182;-54
2023/09/10 07:15:24;;;;;;;14.32;9.95;;;;;;;18.35;100.00;100474.84;5072436;28;20498;-57
2023/09/10 07:17:50;;;;;;;14.20;9.77;;;;;;;18.51;100.00;100464.53;5072790;28;20060;-56
2023/09/10 07:20:16;;;;;;;12.20;8.88;;;;;;;18.59;100.00;100469.69;5072457;28;20538;-56
2023/09/10 07:22:41;;;;;;;10.38;8.70;;;;;;;18.66;100.00;100470.44;5072519;28;20052;-56
2023/09/10 07:25:08;;;;;;;14.30;10.10;;;;;;;18.74;100.00;100472.91;5074128;28;20044;-58
2023/09/10 07:27:33;;;;;;;12.85;10.05;;;;;;;18.81;100.00;100481.75;5072433;28;20446;-55
2023/09/10 07:29:58;;;;;;;12.75;9.48;;;;;;;18.90;100.00;100476.88;5072292;28;20036;-56
2023/09/10 07:32:24;;;;;;;11.60;9.20;;;;;;;19.04;100.00;100474.88;5072122;28;20123;-53
2023/09/10 07:34:49;;;;;;;11.35;9.13;;;;;;;19.16;100.00;100479.31;5072360;28;20066;-55
2023/09/10 07:37:14;;;;;;;12.25;9.30;;;;;;;19.19;100.00;100478.06;5072235;28;20036;-55
2023/09/10 07:39:40;;;;;;;14.65;9.27;;;;;;;19.24;100.00;100480.94;5072178;28;20488;-56
2023/09/10 07:42:05;;;;;;;10.77;9.32;;;;;;;19.36;100.00;100478.28;5071874;28;20048;-56
2023/09/10 07:44:31;;;;;;;13.65;9.45;;;;;;;19.40;100.00;100479.50;5072070;28;20041;-53
2023/09/10 07:46:56;;;;;;;14.48;9.30;;;;;;;19.50;100.00;100485.22;5072072;28;20044;-56
2023/09/10 07:49:21;;;;;;;11.85;9.00;;;;;;;19.58;100.00;100479.53;5072069;28;20041;-56
2023/09/10 07:51:47;;;;;;;12.82;9.10;;;;;;;19.80;100.00;100477.16;5070694;28;20059;-56
2023/09/10 07:54:12;;;;;;;11.15;8.73;;;;;;;19.94;100.00;100485.91;5071907;28;20174;-58
2023/09/10 07:56:38;;;;;;;13.05;8.15;;;;;;;20.18;100.00;100482.25;5071757;28;20036;-60
2023/09/10 07:59:03;;;;;;;11.48;8.32;;;;;;;20.19;100.00;100467.66;5071974;28;20087;-52
2023/09/10 08:01:28;;;;;;;10.82;7.93;;;;;;;20.29;100.00;100484.16;5072053;28;20491;-55
2023/09/10 08:03:54;;;;;;;9.73;7.97;;;;;;;20.41;100.00;100480.63;5071535;28;20534;-54
2023/09/10 08:06:19;;;;;;;9.55;8.15;;;;;;;20.51;100.00;100487.16;5071828;28;20105;-56
2023/09/10 08:08:45;;;;;;;13.35;8.63;;;;;;;20.64;100.00;100490.72;5071852;28;20039;-63
2023/09/10 08:11:10;;;;;;;10.35;7.68;;;;;;;20.64;100.00;100485.31;5072381;28;20032;-66
2023/09/10 08:13:35;;;;;;;10.32;7.88;;;;;;;20.68;100.00;100487.31;5071796;28;20047;-65
2023/09/10 08:16:01;;;;;;;9.35;7.68;;;;;;;20.77;100.00;100493.22;5067582;28;20029;-64
2023/09/10 08:18:26;;;;;;;9.95;8.38;;;;;;;20.86;100.00;100491.78;5069915;28;20490;-64
2023/09/10 08:20:54;;;;;;;10.32;7.30;;;;;;;20.91;98.87;100491.09;5064860;28;20033;-64
2023/09/10 08:23:19;;;;;;;;;;;;;;;20.98;100.00;100483.66;5051844;28;20092;-64
2023/09/10 08:25:44;;;;;;;11.02;8.30;;;;;;;21.03;98.87;100491.91;5051618;28;20334;-64
2023/09/10 08:28:10;;;;;;;9.13;8.07;;;;;;;21.08;99.29;100492.03;5051659;28;20068;-64
2023/09/10 08:30:35;;;;;;;9.77;7.40;;;;;;;21.17;97.20;100495.22;5051426;28;20060;-64
2023/09/10 08:33:00;;;;;;;8.93;7.63;;;;;;;21.28;97.17;100492.53;5051298;28;20044;-64
2023/09/10 08:35:44;;;;;;;10.75;8.07;;;;;;;21.33;96.69;100484.50;5051587;28;20041;-64
2023/09/10 08:38:09;;;;;;;10.25;7.40;;;;;;;21.46;96.61;100482.59;5051737;28;20091;-63
2023/09/10 08:40:40;;;;;;;9.00;7.15;;;;;;;21.59;94.58;100479.63;5051551;28;20037;-64
2023/09/10 08:43:11;;;;;;;8.88;6.72;;;;;;;21.66;91.67;100483.03;5051270;28;20045;-64
2023/09/10 08:45:36;;;;;;;8.35;7.25;;;;;;;21.73;92.50;100488.31;5050419;28;20396;-64
2023/09/10 08:48:04;;;;;;;9.90;7.82;;;;;;;21.81;92.72;100485.19;5051526;28;20028;-64
2023/09/10 08:50:30;;;;;;;10.45;7.40;;;;;;;21.90;92.45;100483.75;5051364;28;20064;-64
2023/09/10 08:52:57;;;;;;;7.70;6.82;;;;;;;21.95;92.67;100484.66;5051193;28;20052;-64
2023/09/10 08:55:25;;;;;;;10.23;7.35;;;;;;;22.09;91.90;100487.13;5051442;28;20090;-64
2023/09/10 08:57:53;;;;;;;8.80;7.40;;;;;;;22.16;90.43;100480.47;5051328;28;20124;-64
2023/09/10 09:00:22;;;;;;;8.02;7.10;;;;;;;22.24;90.29;100483.88;5051350;28;20068;-64
2023/09/10 09:02:47;;;;;;;8.50;6.75;;;;;;;22.33;89.05;100474.25;5051056;28;20044;-64
2023/09/10 09:05:13;;;;;;;11.07;6.93;;;;;;;22.49;90.16;100476.16;5051318;28;20032;-63
2023/09/10 09:08:05;;;;;;;7.72;6.57;;;;;;;22.65;90.10;100469.91;5052389;28;20466;-64
2023/09/10 09:10:33;;;;;;;8.07;6.72;;;;;;;23.03;85.60;100473.78;5055345;28;20025;-63
2023/09/10 09:13:01;;;;;;;;;;;;;;;23.12;86.92;100474.16;5055120;28;20032;-64
2023/09/10 09:15:26;;;;;;;9.07;6.75;;;;;;;23.21;86.14;100473.50;5054911;28;19966;-63
2023/09/10 09:17:55;;;;;;;9.52;6.88;;;;;;;23.29;83.97;100469.50;5054989;28;20064;-64
2023/09/10 09:20:22;;;;;;;7.50;6.35;;;;;;;23.38;82.45;100470.72;5054880;28;20399;-63
2023/09/10 09:22:51;;;;;;;;;;;;;;;23.49;81.82;100463.50;5055031;28;20036;-63
2023/09/10 09:25:17;;;;;;;7.22;6.53;;;;;;;23.68;82.19;100461.31;5054752;28;19939;-63
2023/09/10 09:27:43;;;;;;;7.78;6.78;;;;;;;23.79;80.88;100463.88;5054729;28;20029;-64
2023/09/10 09:30:09;;;;;;;7.72;5.93;;;;;;;24.08;82.94;100458.22;5054812;28;20450;-64
2023/09/10 09:32:37;;;;;;;8.18;7.38;;;;;;;24.23;78.71;100452.91;5054326;28;20036;-64
2023/09/10 09:35:03;;;;;;;7.90;6.47;;;;;;;24.46;77.15;100451.78;5054754;28;20124;-63
2023/09/10 09:37:32;;;;;;;7.32;6.07;;;;;;;24.65;72.21;100449.47;5054533;28;20551;-63
2023/09/10 09:40:01;;;;;;;8.45;5.93;;;;;;;24.83;68.19;100449.03;5054664;28;20472;-63
2023/09/10 09:42:26;;;;;;;7.57;5.68;;;;;;;25.00;67.81;100448.06;5054190;28;20072;-64
2023/09/10 09:44:52;;;;;;;6.15;5.55;;;;;;;25.23;67.34;100439.47;5054543;28;20035;-64
2023/09/10 09:47:17;;;;;;;7.97;6.35;;;;;;;25.38;65.32;100442.28;5054482;28;20048;-64
2023/09/10 09:49:55;;;;;;;6.80;5.80;;;;;;;25.53;64.36;100437.97;5054360;28;20045;-64
2023/09/10 09:52:21;;;;;;;5.72;5.10;;;;;;;25.83;57.45;100429.91;5054249;28;20464;-64
2023/09/10 09:54:47;;;;;;;7.28;5.63;;;;;;;26.00;59.37;100431.56;5054310;28;20052;-64
2023/09/10 09:57:13;;;;;;;7.87;5.70;;;;;;;26.23;56.62;100422.88;5054160;28;20080;-64
2023/09/10 09:59:38;;;;;;;8.75;5.75;;;;;;;26.48;56.64;100424.81;5054330;28;20116;-64
2023/09/10 10:02:04;;;;;;;6.95;6.05;;;;;;;26.78;55.32;100424.75;5053941;28;20136;-64
2023/09/10 10:04:33;;;;;;;5.97;5.07;;;;;;;27.13;55.00;100424.97;5054261;28;20029;-64
2023/09/10 10:06:59;;;;;;;6.05;5.43;;;;;;;27.61;51.53;100428.84;5054176;28;20041;-64
2023/09/10 10:09:34;;;;;;;4.97;4.40;;;;;;;28.13;49.34;100422.78;5054079;28;20132;-64
2023/09/10 10:12:01;;;;;;;5.45;4.60;;;;;;;28.64;47.90;100418.81;5053612;28;20037;-63
2023/09/10 10:14:26;;;;;;;6.18;4.40;;;;;;;29.03;46.03;100417.91;5054039;28;20393;-63
2023/09/10 10:16:53;;;;;;;4.72;3.92;;;;;;;29.70;44.49;100408.53;5053933;28;20090;-65
2023/09/10 10:19:19;;;;;;;4.53;4.13;;;;;;;30.09;43.55;100404.66;5053898;28;20039;-64
2023/09/10 10:21:46;;;;;;;6.22;4.40;;;;;;;30.43;42.47;100404.38;5053741;28;20287;-64
2023/09/10 10:24:13;;;;;;;;;;;;;;;30.72;42.53;100406.09;5054002;28;20128;-65
2023/09/10 10:26:39;;;;;;;4.30;3.90;;;;;;;31.17;41.14;100398.88;5053588;28;19978;-64
2023/09/10 10:29:05;;;;;;;4.70;4.20;;;;;;;31.52;40.36;100397.31;5053825;28;20037;-64
2023/09/10 10:31:34;;;;;;;5.10;4.07;;;;;;;31.91;40.24;100403.34;5053454;28;20045;-63
2023/09/10 10:34:15;;;;;;;7.35;4.40;;;;;;;32.10;39.42;100396.53;5053418;28;20051;-64
2023/09/10 10:37:12;;;;;;;5.57;3.83;;;;;;;32.05;39.68;100393.09;5053462;28;20051;-62
2023/09/10 10:39:45;;;;;;;4.50;4.10;;;;;;;32.64;38.82;100394.59;5053464;28;20476;-62
2023/09/10 10:42:15;;;;;;;4.28;3.88;;;;;;;32.96;38.11;100398.16;5053224;28;20039;-62
2023/09/10 10:44:42;;;;;;;4.60;4.15;;;;;;;33.15;37.59;100390.44;5053717;28;20511;-62
2023/09/10 10:47:16;;;;;;;4.40;4.00;;;;;;;33.52;37.53;100384.66;5053240;28;20017;-63
2023/09/10 10:49:54;;;;;;;4.57;4.18;;;;;;;33.78;36.75;100379.16;5053297;28;20036;-63
2023/09/10 10:52:24;;;;;;;6.63;3.90;;;;;;;34.08;36.30;100372.66;5052960;28;20041;-63
2023/09/10 10:54:51;;;;;;;4.40;3.80;;;;;;;34.15;36.70;100378.50;5053242;28;20037;-63
2023/09/10 10:57:20;;;;;;;5.60;4.30;;;;;;;34.23;35.91;100374.94;5053267;28;20033;-63
2023/09/10 10:59:45;;;;;;;4.60;4.20;;;;;;;34.54;35.14;100366.38;5053000;28;20098;-62
2023/09/10 11:02:21;;;;;;;5.37;3.83;;;;;;;34.58;35.55;100366.56;5052808;28;20604;-65
2023/09/10 11:04:57;;;;;;;5.03;4.50;;;;;;;34.84;34.50;100379.47;5052791;28;20411;-63
2023/09/10 11:07:23;;;;;;;4.65;4.07;;;;;;;34.91;34.81;100365.91;5052856;28;20041;-63
2023/09/10 11:09:49;;;;;;;5.40;3.92;;;;;;;35.31;33.98;100364.38;5052860;28;20116;-64
2023/09/10 11:12:15;;;;;;;4.20;3.80;;;;;;;35.47;32.56;100364.63;5052527;28;20040;-64
2023/09/10 11:14:59;;;;;;;4.38;3.67;;;;;;;35.93;31.48;100368.34;5052967;28;20033;-64
2023/09/10 11:17:27;;;;;;;5.03;3.90;;;;;;;35.91;31.94;100362.31;5052761;28;20038;-64
2023/09/10 11:19:52;;;;;;;5.30;4.25;;;;;;;36.04;31.27;100360.41;5052748;28;20571;-64
2023/09/10 11:22:18;;;;;;;3.83;3.53;;;;;;;36.42;30.30;100361.00;5052379;28;20112;-64
2023/09/10 11:24:43;;;;;;;3.80;3.20;;;;;;;36.45;29.39;100356.72;5052668;28;20072;-62
2023/09/10 11:27:20;;;;;;;4.53;3.43;;;;;;;36.72;29.24;100352.47;5052582;28;20037;-65
2023/09/10 11:30:13;;;;;;;4.60;3.67;;;;;;;37.17;29.29;100349.59;5052272;28;20033;-64
2023/09/10 11:32:39;;;;;;;4.60;3.40;;;;;;;36.86;30.35;100352.97;5052160;28;20045;-63
2023/09/10 11:35:17;;;;;;;;;;;;;;;37.17;29.65;100351.56;5052906;28;20033;-63
2023/09/10 11:37:51;;;;;;;4.18;3.55;;;;;;;37.35;27.19;100332.66;5052440;28;19917;-63
2023/09/10 11:40:18;;;;;;;3.28;2.97;;;;;;;37.26;26.94;100338.34;5052428;28;20067;-63
2023/09/10 11:42:45;;;;;;;3.33;3.03;;;;;;;37.38;27.06;100337.53;5052148;28;20037;-63
2023/09/10 11:45:11;;;;;;;4.20;2.97;;;;;;;37.54;26.15;100345.91;5052228;28;20116;-64
2023/09/10 11:47:44;;;;;;;3.28;2.97;;;;;;;37.35;25.38;100341.00;5052358;28;20039;-63
2023/09/10 11:50:11;;;;;;;4.45;3.20;;;;;;;37.42;25.19;100341.19;5052304;28;20029;-63
2023/09/10 11:52:37;;;;;;;7.70;3.33;;;;;;;37.12;27.57;100337.91;5051821;28;20108;-63
2023/09/10 11:55:11;;;;;;;;;;;;;;;37.37;26.88;100333.13;5062764;28;20094;-63
2023/09/10 11:57:38;;;;;;;3.78;2.90;;;;;;;37.60;25.95;100331.44;5072278;28;19965;-63
2023/09/10 12:00:05;;;;;;;5.53;3.13;;;;;;;37.94;25.31;100326.44;5072055;28;20620;-62
2023/09/10 12:02:36;;;;;;;4.85;3.42;;;;;;;38.02;25.35;100319.91;5071929;28;20045;-63
2023/09/10 12:05:06;;;;;;;4.00;3.50;;;;;;;38.69;25.82;100315.28;5072235;28;20468;-63
2023/09/10 12:07:31;;;;;;;4.75;3.33;;;;;;;38.43;24.65;100318.63;5072002;28;20040;-63
2023/09/10 12:09:57;;;;;;;4.70;3.30;;;;;;;37.53;25.74;100314.56;5070853;28;20032;-63
2023/09/10 12:12:28;;;;;;;3.97;3.57;;;;;;;37.41;25.76;100315.41;5062603;28;20412;-63
2023/09/10 12:14:55;;;;;;;5.50;4.57;;;;;;;38.05;26.10;100310.84;5060379;28;20041;-63
2023/09/10 12:17:21;;;;;;;4.00;3.30;;;;;;;38.31;25.65;100317.91;5063430;28;20085;-63
2023/09/10 12:19:47;;;;;;;4.88;3.72;;;;;;;38.54;25.04;100307.78;5069808;28;20036;-64
2023/09/10 12:22:17;;;;;;;4.10;3.70;;;;;;;38.43;24.57;100303.91;5059702;28;20029;-63
2023/09/10 12:24:44;;;;;;;5.15;3.28;;;;;;;37.01;25.68;100303.44;5060525;28;20043;-63
2023/09/10 12:27:09;;;;;;;5.32;3.40;;;;;;;37.88;26.03;100300.88;5071451;28;20116;-65
2023/09/10 12:29:35;;;;;;;3.50;3.20;;;;;;;38.22;25.79;100304.16;5071550;28;20056;-65
2023/09/10 12:32:02;;;;;;;6.28;3.92;;;;;;;38.81;24.21;100300.50;5057737;28;20625;-65
2023/09/10 12:34:28;;;;;;;5.13;3.30;;;;;;;38.89;24.31;100301.44;5071649;28;20044;-67
2023/09/10 12:36:53;;;;;;;;;;;;;;;38.44;25.48;100297.97;5072042;28;20042;-64
2023/09/10 12:39:23;;;;;;;5.05;3.55;;;;;;;38.88;24.53;100295.09;5071717;28;20358;-65
2023/09/10 12:41:51;;;;;;;4.63;3.30;;;;;;;38.41;24.85;100293.16;5070448;28;20036;-63
2023/09/10 12:44:17;;;;;;;4.10;3.05;;;;;;;38.62;25.28;100294.84;5075594;28;20036;-65
2023/09/10 12:46:43;;;;;;;5.68;3.70;;;;;;;38.60;24.86;100288.81;5075668;28;20036;-65
2023/09/10 12:49:09;;;;;;;4.32;3.45;;;;;;;39.02;24.80;100294.59;5075706;28;20037;-65
2023/09/10 12:51:34;;;;;;;3.65;3.05;;;;;;;39.73;24.51;100293.34;5075513;28;20372;-65
2023/09/10 12:54:00;;;;;;;6.17;3.67;;;;;;;39.90;24.85;100297.63;5075280;28;20071;-65
2023/09/10 12:56:27;;;;;;;5.85;3.70;;;;;;;40.31;23.36;100286.81;5075217;28;20039;-64
2023/09/10 12:58:52;;;;;;;4.22;3.75;;;;;;;38.54;24.36;100280.75;5073507;28;20082;-65
2023/09/10 13:01:25;;;;;;;4.47;3.30;;;;;;;38.66;25.61;100276.22;5075489;28;20040;-65
2023/09/10 13:03:50;;;;;;;5.47;3.28;;;;;;;37.66;25.32;100273.63;5075192;28;20036;-65
2023/09/10 13:06:16;;;;;;;5.57;3.25;;;;;;;39.00;23.99;100281.03;5075215;28;20407;-65
2023/09/10 13:08:42;;;;;;;5.68;3.47;;;;;;;38.67;24.31;100269.50;5073866;28;20040;-65
2023/09/10 13:11:07;;;;;;;5.23;3.07;;;;;;;39.24;24.33;100270.81;5075112;28;20479;-65
2023/09/10 13:13:33;;;;;;;7.67;3.33;;;;;;;39.58;24.17;100272.72;5074879;28;20535;-66
2023/09/10 13:15:58;;;;;;;3.50;2.97;;;;;;;39.82;23.45;100270.78;5074876;28;20290;-66
2023/09/10 13:18:23;;;;;;;5.97;3.67;;;;;;;39.84;23.21;100269.25;5071832;28;20377;-65
2023/09/10 13:20:51;;;;;;;3.63;3.10;;;;;;;38.34;24.73;100256.78;5063443;28;20295;-64
2023/09/10 13:23:16;;;;;;;4.63;3.50;;;;;;;38.61;23.98;100260.63;5063429;28;20037;-65
2023/09/10 13:25:42;;;;;;;5.23;3.37;;;;;;;37.93;24.54;100252.56;5064503;28;20039;-65
2023/09/10 13:28:07;;;;;;;5.53;3.47;;;;;;;37.93;24.93;100253.34;5065044;28;20438;-65
2023/09/10 13:30:33;;;;;;;6.63;3.53;;;;;;;38.56;24.23;100252.56;5063235;28;20315;-65
2023/09/10 13:32:59;;;;;;;4.27;3.07;;;;;;;38.70;24.43;100257.66;5063321;28;20066;-65
2023/09/10 13:35:25;;;;;;;4.78;3.55;;;;;;;39.02;24.16;100250.84;5064790;28;20439;-65
2023/09/10 13:37:50;;;;;;;3.65;3.22;;;;;;;38.88;24.34;100244.16;5063007;28;20125;-65
2023/09/10 13:40:16;;;;;;;4.47;3.03;;;;;;;39.15;24.41;100253.50;5064550;28;20491;-65
2023/09/10 13:42:41;;;;;;;5.87;3.17;;;;;;;38.92;23.98;100256.97;5062958;28;20289;-64
2023/09/10 13:45:07;;;;;;;5.20;3.47;;;;;;;38.07;24.16;100252.09;5063454;28;20783;-66
2023/09/10 13:47:33;;;;;;;;;;;;;;;38.48;23.92;100248.81;5065539;28;20090;-66
2023/09/10 13:49:58;;;;;;;4.43;3.00;;;;;;;37.75;24.74;100250.06;5061260;28;19912;-64
2023/09/10 13:52:23;;;;;;;4.77;3.30;;;;;;;37.04;26.59;100248.06;5063947;28;20095;-64
2023/09/10 13:54:49;;;;;;;5.73;3.63;;;;;;;37.28;26.02;100247.16;5065377;28;20495;-64
2023/09/10 13:57:14;;;;;;;4.10;3.70;;;;;;;37.19;26.73;100243.72;5063031;28;20120;-65
2023/09/10 13:59:39;;;;;;;4.00;3.13;;;;;;;36.20;27.40;100242.19;5064235;28;20036;-64
2023/09/10 14:02:05;;;;;;;5.80;4.27;;;;;;;35.74;27.73;100235.84;5061959;28;20067;-64
2023/09/10 14:04:30;;;;;;;5.83;3.47;;;;;;;35.21;28.34;100223.63;5064841;28;20062;-64
2023/09/10 14:06:56;;;;;;;4.37;3.60;;;;;;;34.98;29.32;100225.13;5053869;28;20036;-64
2023/09/10 14:09:21;;;;;;;3.80;3.10;;;;;;;34.63;29.56;100211.50;5054143;28;20045;-64
2023/09/10 14:11:46;;;;;;;4.97;3.60;;;;;;;34.91;29.45;100219.28;5053952;28;20036;-63
2023/09/10 14:14:12;;;;;;;3.90;3.43;;;;;;;34.73;29.94;100224.91;5053853;28;20389;-64
2023/09/10 14:16:37;;;;;;;5.83;3.73;;;;;;;34.40;29.68;100215.66;5053962;28;20049;-64
2023/09/10 14:19:03;;;;;;;6.13;3.40;;;;;;;34.35;29.84;100213.09;5054025;28;20033;-63
2023/09/10 14:21:28;;;;;;;4.97;3.50;;;;;;;33.87;31.04;100214.25;5053678;28;20476;-64
2023/09/10 14:23:54;;;;;;;6.00;3.30;;;;;;;33.90;31.11;100213.56;5053431;28;20166;-63
2023/09/10 14:26:19;;;;;;;4.37;3.60;;;;;;;33.72;31.46;100210.06;5053800;28;20063;-63
2023/09/10 14:28:45;;;;;;;5.13;3.63;;;;;;;33.64;31.37;100208.13;5053664;28;20060;-63
2023/09/10 14:31:10;;;;;;;4.73;3.37;;;;;;;33.34;31.04;100204.41;5053715;28;20124;-63
2023/09/10 14:33:36;;;;;;;4.43;3.30;;;;;;;32.99;31.28;100209.13;5053550;28;20408;-64
2023/09/10 14:36:01;;;;;;;4.07;3.67;;;;;;;32.74;31.02;100210.72;5053571;28;20036;-63
2023/09/10 14:38:27;;;;;;;5.80;4.17;;;;;;;32.48;32.54;100203.22;5053618;28;20460;-63
2023/09/10 14:40:52;;;;;;;5.90;3.63;;;;;;;32.19;33.00;100206.47;5064127;28;20032;-62
2023/09/10 14:43:18;;;;;;;6.30;3.57;;;;;;;32.21;31.82;100200.63;5052926;28;20029;-62
2023/09/10 14:45:44;;;;;;;4.97;3.47;;;;;;;32.23;32.68;100207.47;5053361;28;20135;-64
2023/09/10 14:48:09;;;;;;;5.03;3.67;;;;;;;32.33;33.17;100204.44;5053393;28;20119;-63
2023/09/10 14:50:36;;;;;;;5.57;3.23;;;;;;;32.27;32.54;100208.44;5053224;28;20090;-63
2023/09/10 14:53:01;;;;;;;7.05;3.80;;;;;;;32.36;31.91;100192.78;5053144;28;20064;-63
2023/09/10 14:55:27;;;;;;;3.83;3.40;;;;;;;32.30;31.80;100196.78;5053164;28;20527;-62
2023/09/10 14:57:52;;;;;;;3.40;3.07;;;;;;;32.24;32.06;100195.31;5053247;28;20041;-70
2023/09/10 15:00:17;;;;;;;3.53;3.13;;;;;;;32.29;32.31;100199.88;5053141;28;20373;-63
2023/09/10 15:02:43;;;;;;;7.27;4.03;;;;;;;32.15;32.65;100205.50;5052779;28;20439;-64
2023/09/10 15:05:11;;;;;;;7.00;3.70;;;;;;;32.17;32.30;100197.72;5052161;28;20135;-60
2023/09/10 15:07:36;;;;;;;4.88;3.25;;;;;;;32.06;33.08;100202.69;5053073;28;20043;-58
2023/09/10 15:10:02;;;;;;;5.87;3.37;;;;;;;32.08;32.57;100200.47;5052972;28;20574;-56
2023/09/10 15:12:28;;;;;;;4.78;3.33;;;;;;;31.93;31.44;100206.38;5052582;28;20107;-57
2023/09/10 15:14:53;;;;;;;3.73;3.17;;;;;;;31.99;31.54;100196.03;5052871;28;20051;-60
2023/09/10 15:17:19;;;;;;;10.50;7.77;;;;;;;32.00;33.18;100195.69;5052796;28;20029;-59
2023/09/10 15:19:44;;;;;;;9.67;5.10;;;;;;;31.95;32.80;100195.03;5052631;28;20480;-57
2023/09/10 15:22:10;;;;;;;6.37;3.60;;;;;;;31.76;32.05;100190.56;5052303;28;20041;-60
2023/09/10 15:24:35;;;;;;;4.03;3.33;;;;;;;31.78;32.60;100201.25;5052716;28;20037;-57
2023/09/10 15:27:01;;;;;;;5.30;2.93;;;;;;;31.75;31.93;100190.84;5052683;28;20498;-57
2023/09/10 15:29:26;;;;;;;5.17;4.00;;;;;;;31.65;34.22;100186.44;5052559;28;20047;-57
2023/09/10 15:31:52;;;;;;;8.53;3.47;;;;;;;31.61;32.15;100183.47;5052218;28;20115;-60
2023/09/10 15:34:18;;;;;;;4.60;3.43;;;;;;;31.56;31.94;100186.41;5052521;28;20411;-57
2023/09/10 15:36:44;;;;;;;4.97;3.40;;;;;;;31.48;31.72;100184.38;5052325;28;20044;-59
2023/09/10 15:39:15;;;;;;;6.13;3.30;;;;;;;31.37;31.02;100180.28;5052434;28;20087;-57